Eshcol, Pennsylvania
Current Conditions -  °F | °C
As of 12:08 PM on Wednesday 26 Nov 2014 (Local Time) from KSEG Reporting Station
Light Snow Light Snow  
Wind Chill: 28°   Ceiling: 500
Heat Index: 33°   Visibility: 0.75mi
Dew Point: 32°   Wind: 6mph
Humidity: 96%   Direction: 350°N
Pressure: 30.07"   Gusts: NA
Location:  40.5551°N, 77.1135°W
Report Text: KSEG 261708Z AUTO 35005KT 3/4SM -SN BR BKN005 OVC010 01/00 A3007 RMK AO2 P0002 T00060000
Loading
Personal Weather Stations






























Interactive Weather Map New forecast layout! Learn more

10-Day Weather Forecast

Advertisements
Track Severe Weather on mobile